Time;durP1;ratioP1;P1;durP2;ratioP2;P2;SDS_P1;SDS_P2;PMS_P1;PMS_P2;Temp;Humidity;BMP_temperature;BMP_pressure;BME280_temperature;BME280_humidity;BME280_pressure;Samples;Min_cycle;Max_cycle;Signal;HPM_P1;HPM_P2
2021/10/02 00:34:43;;;;;;;7.22;5.72;;;14.60;98.80;;;;;;5013717;28;20033;-88
2021/10/02 00:45:25;;;;;;;10.18;5.20;;;14.60;98.90;;;;;;5015999;28;20535;-87
2021/10/02 00:47:54;;;;;;;9.45;5.47;;;14.60;98.90;;;;;;4997728;28;20129;-84
2021/10/02 00:50:20;;;;;;;10.80;6.60;;;14.60;98.80;;;;;;5026009;28;20060;-85
2021/10/02 00:52:47;;;;;;;9.07;6.43;;;14.70;98.90;;;;;;5026400;28;20033;-84
2021/10/02 00:55:13;;;;;;;9.85;5.95;;;14.60;98.90;;;;;;4963211;28;20673;-84
2021/10/02 00:57:39;;;;;;;8.00;6.20;;;14.70;98.90;;;;;;5013019;28;20037;-85
2021/10/02 01:00:07;;;;;;;8.07;6.03;;;14.60;98.80;;;;;;5013006;28;20371;-85
2021/10/02 01:02:36;;;;;;;9.38;6.80;;;14.70;98.90;;;;;;4975694;28;20024;-84
2021/10/02 01:05:38;;;;;;;9.43;6.90;;;14.70;98.90;;;;;;4981412;28;20056;-84
2021/10/02 01:08:35;;;;;;;11.13;6.95;;;14.70;98.90;;;;;;5010527;28;20037;-84
2021/10/02 01:11:43;;;;;;;9.75;7.63;;;14.60;98.90;;;;;;4995126;28;20022;-84
2021/10/02 01:14:19;;;;;;;10.80;6.88;;;14.60;99.00;;;;;;4995314;28;20064;-84
2021/10/02 01:16:55;;;;;;;9.45;6.60;;;14.70;99.00;;;;;;4982831;28;20041;-84
2021/10/02 01:19:47;;;;;;;7.82;6.45;;;14.60;99.00;;;;;;4994812;28;20092;-84
2021/10/02 01:22:19;;;;;;;8.63;7.25;;;14.70;99.00;;;;;;5036856;23;20078;-88
2021/10/02 01:25:10;;;;;;;11.38;7.43;;;14.70;99.00;;;;;;4956298;28;20053;-88
2021/10/02 01:27:53;;;;;;;9.13;7.35;;;14.70;99.00;;;;;;4975944;28;20031;-88
2021/10/02 01:33:31;;;;;;;10.15;7.60;;;14.60;99.00;;;;;;4979860;28;20172;-89
2021/10/02 01:36:25;;;;;;;10.02;7.40;;;14.60;99.00;;;;;;4975683;28;20029;-88
2021/10/02 01:47:15;;;;;;;11.07;7.30;;;14.70;98.90;;;;;;4978761;28;20101;-89
2021/10/02 01:49:48;;;;;;;9.95;7.10;;;14.70;98.90;;;;;;5003167;28;20037;-89
2021/10/02 01:52:18;;;;;;;12.52;8.07;;;14.70;98.90;;;;;;4981594;28;20028;-89
2021/10/02 01:54:46;;;;;;;12.77;7.90;;;14.70;98.80;;;;;;4984203;28;20039;-88
2021/10/02 01:57:12;;;;;;;10.88;8.07;;;14.70;98.80;;;;;;4991737;28;20337;-89
2021/10/02 01:59:39;;;;;;;10.85;7.22;;;14.70;98.80;;;;;;4959485;28;20037;-88
2021/10/02 02:02:06;;;;;;;9.95;7.47;;;14.70;98.80;;;;;;4991804;28;20034;-88
2021/10/02 02:04:33;;;;;;;14.05;8.00;;;14.80;98.90;;;;;;4982977;28;20045;-88
2021/10/02 02:07:00;;;;;;;12.30;8.05;;;14.70;98.70;;;;;;4965701;28;20539;-88
2021/10/02 02:09:37;;;;;;;9.32;7.05;;;14.80;98.70;;;;;;4976463;28;20033;-88
2021/10/02 02:12:04;;;;;;;11.90;7.85;;;14.70;98.70;;;;;;4989225;28;20026;-89
2021/10/02 02:14:30;;;;;;;14.55;7.68;;;14.70;98.70;;;;;;5005484;28;20022;-89
2021/10/02 02:16:57;;;;;;;12.48;7.53;;;14.70;98.70;;;;;;5003467;28;20113;-89
2021/10/02 02:19:24;;;;;;;13.45;8.43;;;14.80;98.70;;;;;;4982389;28;20026;-89
2021/10/02 02:21:50;;;;;;;10.82;7.45;;;14.70;98.70;;;;;;4989133;28;20480;-88
2021/10/02 02:24:15;;;;;;;12.15;7.97;;;14.80;98.70;;;;;;4962659;28;20046;-87
2021/10/02 02:26:42;;;;;;;11.10;7.90;;;14.80;98.70;;;;;;4962567;28;20126;-88
2021/10/02 02:29:10;;;;;;;11.40;7.50;;;14.70;98.60;;;;;;5005424;28;20072;-88
2021/10/02 02:31:37;;;;;;;14.93;8.10;;;14.70;98.60;;;;;;4978872;28;20464;-89
2021/10/02 02:34:06;;;;;;;12.13;7.75;;;14.70;98.60;;;;;;4978586;28;20034;-88
2021/10/02 02:36:35;;;;;;;12.35;7.72;;;14.70;98.60;;;;;;4994922;28;20046;-88
2021/10/02 02:39:01;;;;;;;11.57;8.43;;;14.70;98.60;;;;;;4978613;28;20026;-88
2021/10/02 02:41:27;;;;;;;13.95;8.52;;;14.70;98.60;;;;;;4995151;28;20026;-88
2021/10/02 02:43:52;;;;;;;12.32;7.85;;;14.70;98.60;;;;;;4978282;28;20653;-88
2021/10/02 02:46:34;;;;;;;12.55;9.23;;;14.70;98.60;;;;;;4978650;28;20026;-88
2021/10/02 02:49:20;;;;;;;11.50;8.23;;;14.70;98.70;;;;;;4978350;28;20026;-88
2021/10/02 02:52:05;;;;;;;12.45;9.20;;;14.60;98.70;;;;;;4994397;28;20030;-88
2021/10/02 02:54:40;;;;;;;10.75;7.80;;;14.60;98.80;;;;;;4994291;28;20162;-86
2021/10/02 02:57:24;;;;;;;12.25;8.68;;;14.70;98.80;;;;;;4994198;28;20089;-86
2021/10/02 03:00:06;;;;;;;12.70;9.02;;;14.60;98.90;;;;;;4994295;28;20117;-86
2021/10/02 03:02:56;;;;;;;14.20;9.60;;;14.60;98.90;;;;;;4994085;28;20048;-86
2021/10/02 03:05:23;;;;;;;12.93;9.00;;;14.60;98.90;;;;;;4977567;28;20186;-86
2021/10/02 03:08:14;;;;;;;13.57;10.02;;;14.60;98.90;;;;;;4977681;28;20403;-86
2021/10/02 03:10:47;;;;;;;10.93;9.35;;;14.60;99.00;;;;;;4977585;28;20081;-86
2021/10/02 03:13:19;;;;;;;17.02;10.38;;;14.60;99.00;;;;;;4977739;28;20488;-86
2021/10/02 03:15:49;;;;;;;14.10;10.75;;;14.60;99.00;;;;;;4976922;28;20519;-86
2021/10/02 03:18:17;;;;;;;16.50;10.45;;;14.60;99.00;;;;;;4977644;28;20049;-86
2021/10/02 03:20:49;;;;;;;12.50;10.05;;;14.60;99.00;;;;;;4977382;28;20101;-85
2021/10/02 03:23:22;;;;;;;14.68;10.90;;;14.60;99.00;;;;;;4977273;28;20099;-85
2021/10/02 03:25:48;;;;;;;13.10;10.80;;;14.50;99.00;;;;;;4977424;28;20039;-85
2021/10/02 03:28:16;;;;;;;15.68;10.07;;;14.50;99.00;;;;;;4977231;28;20036;-85
2021/10/02 03:30:45;;;;;;;11.80;9.60;;;14.50;98.90;;;;;;4976709;28;20030;-85
2021/10/02 03:33:11;;;;;;;16.55;10.55;;;14.50;98.90;;;;;;4961045;28;20436;-84
2021/10/02 03:35:38;;;;;;;12.80;9.70;;;14.50;98.90;;;;;;4993218;28;20023;-84
2021/10/02 03:38:07;;;;;;;16.23;10.82;;;14.50;99.00;;;;;;4976839;28;20053;-85
2021/10/02 03:40:33;;;;;;;12.55;9.95;;;14.50;99.10;;;;;;4948085;28;20049;-85
2021/10/02 03:42:59;;;;;;;15.23;9.73;;;14.50;99.10;;;;;;4993264;28;20054;-85
2021/10/02 03:45:29;;;;;;;15.05;10.15;;;14.50;99.10;;;;;;4988849;28;20022;-85
2021/10/02 03:47:55;;;;;;;12.95;10.13;;;14.50;99.10;;;;;;4984243;28;20034;-85
2021/10/02 03:50:21;;;;;;;14.25;9.73;;;14.50;99.10;;;;;;4976773;28;20472;-85
2021/10/02 03:52:47;;;;;;;15.18;10.43;;;14.50;99.10;;;;;;4993079;28;20022;-84
2021/10/02 03:55:15;;;;;;;14.57;9.77;;;14.50;99.10;;;;;;4976832;28;20154;-84
2021/10/02 03:57:41;;;;;;;13.70;9.77;;;14.50;99.10;;;;;;4976887;28;20014;-84
2021/10/02 04:00:09;;;;;;;13.30;9.70;;;14.50;99.10;;;;;;4992827;28;20357;-85
2021/10/02 04:02:44;;;;;;;29.08;9.40;;;14.50;99.10;;;;;;4976587;28;20025;-86
2021/10/02 04:05:10;;;;;;;15.07;9.27;;;14.50;99.10;;;;;;4986090;28;20026;-86
2021/10/02 04:07:36;;;;;;;19.15;10.48;;;14.60;99.10;;;;;;4979195;28;20015;-86
2021/10/02 04:10:07;;;;;;;12.02;10.02;;;14.60;99.10;;;;;;4977568;28;20065;-86
2021/10/02 04:12:32;;;;;;;;;;;14.60;99.10;;;;;;4977649;28;20077;-86
2021/10/02 04:14:58;;;;;;;14.55;10.82;;;14.60;99.00;;;;;;4984291;28;19988;-87
2021/10/02 04:17:24;;;;;;;13.60;11.48;;;14.50;99.00;;;;;;4953618;28;20543;-86
2021/10/02 04:19:50;;;;;;;15.45;11.27;;;14.50;99.00;;;;;;4959271;28;20055;-86
2021/10/02 04:22:15;;;;;;;15.60;11.68;;;14.50;99.10;;;;;;4944351;28;20081;-86
2021/10/02 04:24:41;;;;;;;15.68;11.93;;;14.50;99.10;;;;;;4955420;28;20086;-87
2021/10/02 04:27:08;;;;;;;13.13;11.38;;;14.50;99.10;;;;;;4976690;28;20506;-86
2021/10/02 04:29:34;;;;;;;19.05;12.63;;;14.50;99.00;;;;;;4990057;28;20025;-87
2021/10/02 04:32:10;;;;;;;17.88;12.70;;;14.50;99.00;;;;;;4992685;28;20117;-86
2021/10/02 04:34:36;;;;;;;16.15;12.43;;;14.50;99.10;;;;;;4960272;28;20369;-85
2021/10/02 04:37:02;;;;;;;15.70;12.52;;;14.50;99.00;;;;;;4960243;28;20092;-86
2021/10/02 04:39:28;;;;;;;16.00;12.35;;;14.40;98.90;;;;;;4976446;28;20387;-86
2021/10/02 04:41:55;;;;;;;14.55;11.65;;;14.40;98.90;;;;;;4960544;28;20026;-86
2021/10/02 04:44:21;;;;;;;15.05;12.88;;;14.40;98.90;;;;;;4978394;28;20039;-87
2021/10/02 04:46:47;;;;;;;16.88;13.25;;;14.40;98.90;;;;;;4973672;28;20018;-86
2021/10/02 04:49:12;;;;;;;14.13;10.90;;;14.40;98.90;;;;;;4976801;28;20049;-86
2021/10/02 04:51:39;;;;;;;14.98;11.73;;;14.40;98.90;;;;;;4976383;28;20495;-87
2021/10/02 04:54:05;;;;;;;19.80;12.23;;;14.40;98.90;;;;;;4976550;28;20034;-85
2021/10/02 04:56:32;;;;;;;15.02;11.10;;;14.40;98.90;;;;;;4957085;28;20445;-86
2021/10/02 04:59:01;;;;;;;17.63;12.82;;;14.40;98.90;;;;;;4977751;28;20060;-87
2021/10/02 05:01:27;;;;;;;19.50;13.18;;;14.40;98.80;;;;;;4966281;28;20023;-86
2021/10/02 05:03:53;;;;;;;17.33;13.13;;;14.30;98.80;;;;;;4982969;28;20031;-86
2021/10/02 05:06:19;;;;;;;15.80;12.60;;;14.30;98.80;;;;;;4961801;28;20015;-88
2021/10/02 05:08:48;;;;;;;14.63;11.88;;;14.30;98.70;;;;;;4987658;28;20022;-88
2021/10/02 05:11:14;;;;;;;16.10;11.05;;;14.30;98.70;;;;;;4976417;28;20423;-87
2021/10/02 05:13:40;;;;;;;17.35;11.70;;;14.30;98.80;;;;;;4976079;28;20023;-88
2021/10/02 05:16:06;;;;;;;14.98;10.73;;;14.30;98.70;;;;;;4973024;28;20499;-88
2021/10/02 05:18:31;;;;;;;15.88;10.93;;;14.30;98.70;;;;;;4956777;28;20109;-88
2021/10/02 05:20:57;;;;;;;13.98;10.25;;;14.30;98.70;;;;;;4956967;28;20034;-87
2021/10/02 05:23:23;;;;;;;14.70;10.95;;;14.30;99.00;;;;;;4997677;28;20065;-87
2021/10/02 05:25:54;;;;;;;14.60;10.18;;;14.30;98.80;;;;;;5011699;28;20173;-87
2021/10/02 05:28:23;;;;;;;15.43;10.13;;;14.30;98.80;;;;;;5013649;28;20048;-88
2021/10/02 05:30:49;;;;;;;15.27;10.73;;;14.20;98.70;;;;;;4979511;28;20112;-87
2021/10/02 05:33:18;;;;;;;12.43;10.05;;;14.20;98.80;;;;;;4982087;28;20030;-87
2021/10/02 05:35:45;;;;;;;11.95;10.00;;;14.20;98.80;;;;;;5012754;28;20360;-87
2021/10/02 05:38:11;;;;;;;15.77;9.93;;;14.20;98.90;;;;;;4977923;28;20034;-87
2021/10/02 05:40:37;;;;;;;13.27;9.82;;;14.20;98.90;;;;;;4979228;28;20030;-87
2021/10/02 05:43:08;;;;;;;14.43;9.68;;;14.10;98.80;;;;;;5011485;28;20064;-87
2021/10/02 05:45:33;;;;;;;;;;;14.10;98.80;;;;;;5011793;28;20025;-87
2021/10/02 05:48:09;;;;;;;12.27;9.63;;;14.10;98.80;;;;;;5011369;28;20256;-88
2021/10/02 05:50:35;;;;;;;13.00;9.23;;;14.10;98.80;;;;;;4995775;28;20486;-87
2021/10/02 05:53:00;;;;;;;10.45;9.00;;;14.10;98.70;;;;;;4962815;28;20046;-87
2021/10/02 05:55:28;;;;;;;13.48;9.15;;;14.00;98.60;;;;;;5014138;28;20060;-88
2021/10/02 05:57:57;;;;;;;12.75;8.88;;;14.00;98.60;;;;;;4998886;28;20026;-86
2021/10/02 06:00:23;;;;;;;12.82;9.40;;;14.00;98.60;;;;;;4985417;28;20093;-86
2021/10/02 06:02:49;;;;;;;13.70;9.25;;;14.00;98.50;;;;;;5015227;28;20415;-86
2021/10/02 06:05:14;;;;;;;12.43;9.45;;;14.00;98.50;;;;;;5015062;28;20044;-86
2021/10/02 06:07:40;;;;;;;14.10;9.13;;;14.00;98.50;;;;;;4984810;28;20061;-86
2021/10/02 06:10:06;;;;;;;11.85;8.60;;;14.00;98.40;;;;;;4998673;28;20026;-86
2021/10/02 06:12:34;;;;;;;13.82;9.27;;;14.00;98.30;;;;;;4998651;28;20018;-86
2021/10/02 06:15:11;;;;;;;14.38;9.20;;;13.90;98.30;;;;;;4998609;28;20022;-86
2021/10/02 06:17:39;;;;;;;14.85;9.38;;;13.90;98.30;;;;;;4968535;28;20125;-86
2021/10/02 06:20:08;;;;;;;13.07;10.02;;;13.90;98.30;;;;;;4998521;28;20065;-85
2021/10/02 06:22:36;;;;;;;11.80;9.60;;;13.90;98.30;;;;;;4997682;28;20461;-85
2021/10/02 06:25:05;;;;;;;13.77;10.10;;;13.80;98.40;;;;;;4982191;28;20037;-87
2021/10/02 06:27:34;;;;;;;12.40;10.20;;;13.80;98.40;;;;;;4998404;28;20404;-88
2021/10/02 06:30:03;;;;;;;14.68;10.30;;;13.80;98.60;;;;;;5004832;28;20064;-87
2021/10/02 06:32:29;;;;;;;13.90;9.57;;;13.80;98.70;;;;;;5015769;28;20076;-88
2021/10/02 06:34:54;;;;;;;14.25;10.10;;;13.80;98.70;;;;;;4981523;28;20125;-88
2021/10/02 06:37:21;;;;;;;19.23;10.40;;;13.80;98.80;;;;;;5015819;28;20041;-87
2021/10/02 06:39:47;;;;;;;15.07;10.38;;;13.80;98.90;;;;;;4998136;28;20030;-88
2021/10/02 06:42:15;;;;;;;15.25;11.15;;;13.80;99.00;;;;;;4992298;28;20022;-88
2021/10/02 06:44:42;;;;;;;14.45;10.70;;;13.80;99.00;;;;;;4991945;28;20026;-87
2021/10/02 06:47:08;;;;;;;15.18;9.77;;;13.80;99.00;;;;;;4981179;28;20030;-87
2021/10/02 06:49:33;;;;;;;15.10;10.70;;;13.80;99.10;;;;;;5014170;28;20029;-87
2021/10/02 06:52:02;;;;;;;12.75;10.20;;;13.80;99.10;;;;;;5003457;28;20117;-89
2021/10/02 06:54:27;;;;;;;16.42;11.98;;;13.90;99.00;;;;;;5015395;28;20022;-88
2021/10/02 06:56:56;;;;;;;16.88;11.25;;;13.80;98.80;;;;;;4981707;28;20040;-88
2021/10/02 06:59:25;;;;;;;18.23;11.52;;;13.90;98.80;;;;;;5014058;28;20026;-88
2021/10/02 07:01:51;;;;;;;15.32;11.00;;;13.90;98.70;;;;;;5015156;28;20026;-87
2021/10/02 07:04:16;;;;;;;18.92;11.98;;;13.90;98.70;;;;;;4997330;28;20077;-87
2021/10/02 07:06:42;;;;;;;16.83;11.80;;;13.90;98.60;;;;;;4980147;28;20026;-87
2021/10/02 07:09:23;;;;;;;15.48;12.00;;;13.90;98.60;;;;;;4997881;28;20061;-87
2021/10/02 07:11:55;;;;;;;15.75;11.30;;;13.90;98.60;;;;;;4997390;28;20100;-87
2021/10/02 07:14:20;;;;;;;17.42;12.13;;;14.00;98.70;;;;;;5015100;28;20029;-88
2021/10/02 07:16:47;;;;;;;17.25;12.02;;;14.00;98.70;;;;;;5010523;28;20034;-87
2021/10/02 07:19:13;;;;;;;17.67;12.95;;;14.00;98.80;;;;;;4997429;28;20022;-87
2021/10/02 07:21:42;;;;;;;19.75;13.18;;;14.00;99.00;;;;;;4997084;28;20076;-87
2021/10/02 07:24:14;;;;;;;15.20;12.63;;;14.10;98.90;;;;;;4969138;28;20034;-87
2021/10/02 07:26:40;;;;;;;17.92;11.68;;;14.10;98.80;;;;;;5004239;28;20116;-90
2021/10/02 07:29:06;;;;;;;16.55;12.07;;;14.10;98.90;;;;;;5011634;28;20022;-89
2021/10/02 07:31:32;;;;;;;15.02;11.27;;;14.20;98.90;;;;;;4998384;28;20355;-90
2021/10/02 07:33:58;;;;;;;17.08;12.65;;;14.20;98.80;;;;;;5011461;28;20037;-89
2021/10/02 07:36:24;;;;;;;18.17;11.85;;;14.20;98.80;;;;;;4988962;23;20040;-87
2021/10/02 07:38:49;;;;;;;14.75;10.73;;;14.20;98.60;;;;;;5013267;28;20045;-87
2021/10/02 07:41:17;;;;;;;16.20;11.90;;;14.20;98.50;;;;;;4996638;28;20022;-87
2021/10/02 07:43:47;;;;;;;16.33;12.63;;;14.20;98.30;;;;;;4980718;28;20022;-87
2021/10/02 07:46:16;;;;;;;18.23;12.23;;;14.20;98.20;;;;;;5000001;28;20018;-87
2021/10/02 07:48:42;;;;;;;17.20;12.43;;;14.20;98.40;;;;;;4997193;28;20029;-88
2021/10/02 07:51:12;;;;;;;18.52;12.13;;;14.20;98.30;;;;;;5015017;28;20029;-87
2021/10/02 07:53:39;;;;;;;15.10;11.52;;;14.30;98.40;;;;;;5013644;28;20080;-87
2021/10/02 07:56:08;;;;;;;16.52;12.05;;;14.30;98.20;;;;;;4979990;28;20119;-87
2021/10/02 07:58:33;;;;;;;17.05;12.13;;;14.30;98.00;;;;;;4996634;28;20032;-88
2021/10/02 08:00:59;;;;;;;15.65;10.88;;;14.30;97.90;;;;;;4964320;28;20026;-87
2021/10/02 08:03:25;;;;;;;15.00;11.13;;;14.30;98.20;;;;;;4996201;28;20518;-86
2021/10/02 08:05:52;;;;;;;14.07;10.93;;;14.30;98.00;;;;;;4980376;28;20030;-87
2021/10/02 08:08:20;;;;;;;16.90;10.52;;;14.40;98.20;;;;;;5012788;28;20022;-87
2021/10/02 08:10:49;;;;;;;14.57;10.68;;;14.40;98.00;;;;;;4980721;28;20475;-88
2021/10/02 08:13:15;;;;;;;15.27;11.13;;;14.40;98.00;;;;;;5012659;28;20072;-88
2021/10/02 08:15:54;;;;;;;18.05;10.88;;;14.50;98.10;;;;;;4996669;28;20032;-88
2021/10/02 08:18:24;;;;;;;18.15;11.43;;;14.50;98.10;;;;;;5012425;28;20040;-88
2021/10/02 08:20:53;;;;;;;17.27;11.50;;;14.50;98.00;;;;;;5012859;28;20029;-88
2021/10/02 08:23:23;;;;;;;16.60;10.38;;;14.60;98.00;;;;;;4995995;28;20029;-87
2021/10/02 08:25:50;;;;;;;13.45;10.95;;;14.60;97.80;;;;;;5013750;28;20026;-88
2021/10/02 08:28:16;;;;;;;13.82;10.05;;;14.60;98.20;;;;;;4996754;28;20096;-87
2021/10/02 08:30:43;;;;;;;13.27;9.30;;;14.60;98.60;;;;;;5012692;28;20025;-87
2021/10/02 08:33:10;;;;;;;11.65;8.60;;;14.70;98.40;;;;;;5013749;28;20030;-87
2021/10/02 08:35:37;;;;;;;13.50;8.70;;;14.70;98.50;;;;;;4980106;28;20037;-85
2021/10/02 08:38:03;;;;;;;12.10;8.10;;;14.70;98.50;;;;;;4996328;28;20078;-86
2021/10/02 08:40:28;;;;;;;13.20;7.80;;;14.70;99.30;;;;;;4983109;28;20086;-87
2021/10/02 08:42:55;;;;;;;11.05;7.93;;;14.70;98.60;;;;;;4997111;28;20034;-87
2021/10/02 08:45:21;;;;;;;12.60;7.63;;;14.80;98.90;;;;;;4996483;28;20032;-87
2021/10/02 08:47:48;;;;;;;15.10;8.02;;;14.80;98.70;;;;;;5012845;28;20026;-87
2021/10/02 08:50:18;;;;;;;13.52;7.85;;;14.90;98.50;;;;;;5011881;28;20022;-87
2021/10/02 08:52:46;;;;;;;12.60;6.70;;;14.90;98.90;;;;;;5012602;28;20455;-87
2021/10/02 08:55:13;;;;;;;12.65;6.43;;;14.90;99.30;;;;;;5012682;28;20052;-88
2021/10/02 08:57:41;;;;;;;9.93;6.15;;;15.00;99.20;;;;;;4996742;28;20022;-88
2021/10/02 09:00:10;;;;;;;13.93;6.93;;;15.00;99.10;;;;;;4984693;28;20022;-89
2021/10/02 09:02:36;;;;;;;15.73;6.70;;;15.00;98.80;;;;;;5012985;28;20053;-89
2021/10/02 09:05:06;;;;;;;13.30;6.40;;;15.10;98.40;;;;;;5006066;28;20027;-89
2021/10/02 09:07:32;;;;;;;12.52;6.53;;;15.10;97.40;;;;;;5005668;28;20022;-89
2021/10/02 09:10:01;;;;;;;11.88;6.35;;;15.10;98.10;;;;;;4996337;28;20066;-90
2021/10/02 09:12:28;;;;;;;10.95;6.55;;;15.10;98.10;;;;;;4985514;28;20073;-89
2021/10/02 09:14:54;;;;;;;11.63;7.13;;;15.10;97.80;;;;;;4983826;28;20574;-89
2021/10/02 09:17:20;;;;;;;9.57;6.35;;;15.10;97.20;;;;;;4978412;28;20166;-89
2021/10/02 09:19:47;;;;;;;13.07;6.68;;;15.10;97.80;;;;;;4977779;28;20037;-90
2021/10/02 09:22:14;;;;;;;13.32;7.03;;;15.20;97.70;;;;;;4977528;28;20539;-89
2021/10/02 09:24:43;;;;;;;10.57;6.50;;;15.20;98.00;;;;;;4971988;28;20150;-89
2021/10/02 09:27:20;;;;;;;11.23;6.93;;;15.30;98.00;;;;;;4976905;28;20042;-89
2021/10/02 09:29:56;;;;;;;11.55;6.63;;;15.30;97.90;;;;;;4977286;28;20114;-89
2021/10/02 09:32:27;;;;;;;12.55;7.22;;;15.40;97.70;;;;;;4999614;28;20030;-89
2021/10/02 09:34:55;;;;;;;11.68;6.13;;;15.50;97.80;;;;;;5014758;28;20022;-89
2021/10/02 09:37:25;;;;;;;9.90;5.85;;;15.60;97.80;;;;;;4996155;28;20515;-90
2021/10/02 09:39:56;;;;;;;10.40;6.00;;;15.60;97.20;;;;;;4988320;28;20094;-89
2021/10/02 09:42:43;;;;;;;9.47;5.10;;;15.60;97.30;;;;;;4983347;28;20261;-89
2021/10/02 09:45:14;;;;;;;9.82;5.85;;;15.70;97.20;;;;;;4994830;28;20362;-89
2021/10/02 09:47:43;;;;;;;9.80;5.05;;;15.70;96.60;;;;;;4972428;28;20026;-89
2021/10/02 09:50:17;;;;;;;9.25;4.32;;;15.70;96.60;;;;;;4995684;28;20468;-89
2021/10/02 09:52:45;;;;;;;10.07;4.40;;;15.80;97.10;;;;;;4977220;28;20034;-88
2021/10/02 09:55:27;;;;;;;9.63;4.80;;;15.70;96.40;;;;;;4980077;28;20026;-89
2021/10/02 09:57:55;;;;;;;12.35;4.65;;;15.80;97.20;;;;;;4992437;28;20031;-88
2021/10/02 10:00:24;;;;;;;8.02;4.40;;;15.90;97.80;;;;;;4986102;28;20026;-89
2021/10/02 10:02:51;;;;;;;11.88;5.75;;;15.90;97.20;;;;;;4979485;28;20484;-89
2021/10/02 10:05:17;;;;;;;9.18;4.40;;;15.90;97.40;;;;;;4995754;28;20471;-88
2021/10/02 10:07:58;;;;;;;8.68;3.75;;;16.00;97.60;;;;;;4946677;28;20037;-89
2021/10/02 10:10:25;;;;;;;9.38;4.53;;;16.00;95.70;;;;;;4995278;28;20030;-89
2021/10/02 10:12:51;;;;;;;9.10;4.07;;;16.10;96.20;;;;;;4986881;28;20023;-89
2021/10/02 10:15:39;;;;;;;9.02;4.35;;;16.10;96.90;;;;;;4962708;28;20412;-88
2021/10/02 10:18:12;;;;;;;7.88;4.57;;;16.10;96.00;;;;;;4972759;28;20021;-88
2021/10/02 10:20:43;;;;;;;6.95;4.20;;;16.20;96.00;;;;;;4978805;28;20022;-89
2021/10/02 10:23:10;;;;;;;6.43;3.97;;;16.10;95.90;;;;;;4992438;28;20038;-88
2021/10/02 10:25:51;;;;;;;8.32;3.85;;;16.10;96.20;;;;;;4962695;28;20073;-89
2021/10/02 10:28:19;;;;;;;8.95;4.15;;;16.10;95.90;;;;;;4979409;28;20669;-89
2021/10/02 10:30:47;;;;;;;5.88;3.72;;;16.20;96.70;;;;;;4984285;28;20358;-90
2021/10/02 10:33:14;;;;;;;6.57;3.58;;;16.10;95.40;;;;;;4965505;28;20030;-91
2021/10/02 10:35:50;;;;;;;5.57;3.22;;;16.20;96.50;;;;;;4979277;28;20040;-91
2021/10/02 10:38:23;;;;;;;5.93;3.28;;;16.20;96.00;;;;;;4987140;28;20042;-85
2021/10/02 10:40:50;;;;;;;6.57;2.90;;;16.30;96.00;;;;;;4991495;28;20117;-84
2021/10/02 10:43:17;;;;;;;5.00;2.50;;;16.30;95.50;;;;;;4995180;28;20034;-84
2021/10/02 10:46:05;;;;;;;6.13;2.30;;;16.40;96.10;;;;;;4978071;28;20057;-84
2021/10/02 10:48:32;;;;;;;4.78;2.45;;;16.40;96.00;;;;;;4994987;28;20018;-84
2021/10/02 10:51:07;;;;;;;4.82;2.45;;;16.50;96.00;;;;;;4996422;28;20014;-84
2021/10/02 10:53:35;;;;;;;4.72;2.22;;;16.50;95.60;;;;;;4987356;28;20073;-84
2021/10/02 10:56:01;;;;;;;3.75;2.00;;;16.50;94.70;;;;;;4977294;28;20025;-84
2021/10/02 10:58:29;;;;;;;6.30;2.38;;;16.50;95.60;;;;;;4995419;28;20026;-84
2021/10/02 11:00:56;;;;;;;7.60;2.33;;;16.60;94.20;;;;;;4996215;28;20032;-87
2021/10/02 11:03:45;;;;;;;5.95;2.35;;;16.60;95.30;;;;;;5012952;28;20050;-88
2021/10/02 11:06:18;;;;;;;4.28;1.95;;;16.70;94.80;;;;;;4978879;28;20027;-87
2021/10/02 11:09:05;;;;;;;3.65;1.90;;;16.70;93.90;;;;;;4976611;28;20051;-87
2021/10/02 11:11:55;;;;;;;3.97;2.00;;;16.70;94.80;;;;;;5004473;28;20022;-86
2021/10/02 11:14:43;;;;;;;5.25;2.10;;;16.70;94.60;;;;;;5002937;28;20070;-86
2021/10/02 11:17:08;;;;;;;4.70;2.05;;;16.70;93.90;;;;;;4915712;29;20063;-87
2021/10/02 11:19:43;;;;;;;2.70;1.70;;;16.60;94.30;;;;;;4949576;28;20510;-88
2021/10/02 11:22:47;;;;;;;3.15;1.42;;;16.60;93.30;;;;;;4980647;28;20034;-89
2021/10/02 11:25:23;;;;;;;4.50;2.08;;;16.60;93.80;;;;;;5003383;28;20081;-89
2021/10/02 11:27:49;;;;;;;4.72;2.13;;;16.60;93.60;;;;;;4985161;28;20015;-88
2021/10/02 11:30:20;;;;;;;4.18;1.80;;;16.60;94.10;;;;;;4987830;28;20014;-88
2021/10/02 11:32:47;;;;;;;3.17;1.92;;;16.60;94.00;;;;;;5002446;28;20120;-87
2021/10/02 11:35:26;;;;;;;5.38;1.88;;;16.60;95.30;;;;;;4982421;28;20445;-88
2021/10/02 11:38:03;;;;;;;3.20;1.83;;;16.70;94.80;;;;;;5000044;28;20081;-88
2021/10/02 11:40:31;;;;;;;3.20;2.05;;;16.70;95.40;;;;;;4974214;28;20033;-85
2021/10/02 11:43:09;;;;;;;4.28;2.05;;;16.80;94.90;;;;;;4977568;28;20034;-85
2021/10/02 11:45:35;;;;;;;4.30;1.90;;;16.90;94.60;;;;;;4976583;28;20053;-86
2021/10/02 11:48:16;;;;;;;5.32;2.05;;;16.90;94.90;;;;;;4992615;28;20019;-84
2021/10/02 11:50:43;;;;;;;5.10;1.83;;;16.90;94.40;;;;;;4978057;28;20379;-86
2021/10/02 11:53:17;;;;;;;3.30;1.70;;;17.00;94.80;;;;;;4978877;28;20046;-90
2021/10/02 11:55:43;;;;;;;3.20;1.80;;;16.90;93.60;;;;;;4977940;28;20034;-90
2021/10/02 11:58:11;;;;;;;3.05;1.80;;;17.00;94.10;;;;;;4997489;28;20034;-90
2021/10/02 12:00:57;;;;;;;4.32;1.45;;;17.00;94.90;;;;;;4996198;28;20026;-90
2021/10/02 12:03:31;;;;;;;2.83;1.58;;;17.00;94.10;;;;;;4994202;28;20038;-91
2021/10/02 12:05:59;;;;;;;3.83;1.60;;;17.00;94.90;;;;;;4994468;28;20479;-90
2021/10/02 12:08:25;;;;;;;4.65;1.67;;;17.00;94.70;;;;;;4978787;28;20023;-90
2021/10/02 12:11:20;;;;;;;4.03;1.80;;;17.10;95.30;;;;;;4978460;28;20101;-91
2021/10/02 12:13:52;;;;;;;3.20;1.50;;;17.10;95.00;;;;;;4944941;28;20505;-91
2021/10/02 12:16:25;;;;;;;3.70;1.75;;;17.20;94.50;;;;;;5000864;28;20019;-92
2021/10/02 12:19:08;;;;;;;4.15;1.60;;;17.30;95.50;;;;;;4999543;28;20031;-92
2021/10/02 12:21:46;;;;;;;4.78;1.70;;;17.30;94.50;;;;;;4994058;28;20023;-91
2021/10/02 12:24:21;;;;;;;4.22;1.65;;;17.40;95.00;;;;;;4993104;28;20050;-89
2021/10/02 12:26:57;;;;;;;2.67;1.60;;;17.50;93.60;;;;;;4999906;28;20018;-88
2021/10/02 12:29:32;;;;;;;2.42;1.50;;;17.60;94.40;;;;;;4996366;28;20030;-89
2021/10/02 12:32:01;;;;;;;3.22;1.60;;;17.60;94.60;;;;;;4977777;28;20026;-88
2021/10/02 12:34:39;;;;;;;3.97;1.70;;;17.60;94.20;;;;;;4981195;28;20460;-89
2021/10/02 12:37:35;;;;;;;2.58;1.48;;;17.60;93.70;;;;;;4983266;28;20456;-89
2021/10/02 12:40:04;;;;;;;3.35;1.27;;;17.60;95.00;;;;;;4961608;28;20041;-88
2021/10/02 12:42:53;;;;;;;4.85;1.50;;;17.60;93.60;;;;;;5011261;28;20029;-85
2021/10/02 12:45:27;;;;;;;3.17;1.48;;;17.50;94.10;;;;;;4987062;28;20495;-88
2021/10/02 12:48:03;;;;;;;3.03;1.58;;;17.60;95.30;;;;;;4995331;28;20026;-89
2021/10/02 12:50:33;;;;;;;2.72;1.33;;;17.50;93.20;;;;;;4994859;28;20096;-87
2021/10/02 12:53:00;;;;;;;2.95;1.13;;;17.50;92.80;;;;;;5005062;28;20022;-88
2021/10/02 12:55:26;;;;;;;3.60;1.50;;;17.50;93.80;;;;;;5011856;28;20548;-88
2021/10/02 12:57:52;;;;;;;4.50;1.30;;;17.60;94.10;;;;;;4990236;28;20033;-88
2021/10/02 13:00:22;;;;;;;3.83;1.67;;;17.50;94.00;;;;;;4995880;28;20453;-88
2021/10/02 13:02:50;;;;;;;2.45;1.05;;;17.50;93.40;;;;;;4995577;28;20060;-88
2021/10/02 13:05:21;;;;;;;1.50;1.00;;;17.50;94.30;;;;;;5010307;28;20042;-87
2021/10/02 13:07:53;;;;;;;2.17;1.02;;;17.50;94.60;;;;;;4984392;28;20022;-88
2021/10/02 13:10:26;;;;;;;2.00;1.20;;;17.50;94.90;;;;;;4993616;28;20529;-88
2021/10/02 13:12:57;;;;;;;3.75;1.60;;;17.60;95.20;;;;;;5003799;28;20022;-88
2021/10/02 13:15:30;;;;;;;4.47;1.73;;;17.60;95.30;;;;;;5004421;28;20056;-88
2021/10/02 13:18:06;;;;;;;1.67;1.10;;;17.50;94.40;;;;;;4994619;28;20101;-88
2021/10/02 13:20:36;;;;;;;2.88;1.35;;;17.60;94.50;;;;;;4997466;28;20034;-88
2021/10/02 13:23:49;;;;;;;2.95;1.20;;;17.60;94.50;;;;;;5012144;28;20057;-90
2021/10/02 13:26:22;;;;;;;2.50;1.20;;;17.60;93.70;;;;;;5010549;28;20030;-88
2021/10/02 13:28:50;;;;;;;2.05;1.20;;;17.60;94.70;;;;;;4996792;28;20025;-88
2021/10/02 13:31:16;;;;;;;3.85;1.27;;;17.60;93.90;;;;;;4995507;28;20025;-87
2021/10/02 13:33:48;;;;;;;2.60;1.27;;;17.60;94.60;;;;;;4995437;28;20026;-87
2021/10/02 13:38:41;;;;;;;3.58;1.23;;;17.50;94.70;;;;;;4991857;28;20081;-88
2021/10/02 13:41:16;;;;;;;1.55;1.15;;;17.50;94.00;;;;;;4970308;28;20487;-88
2021/10/02 13:43:52;;;;;;;2.65;1.55;;;17.60;94.70;;;;;;4955382;28;20030;-88
2021/10/02 13:46:30;;;;;;;1.55;1.30;;;17.60;94.50;;;;;;4978044;28;20058;-87
2021/10/02 13:49:00;;;;;;;2.80;1.30;;;17.60;95.20;;;;;;4976670;28;20057;-89
2021/10/02 13:51:26;;;;;;;1.33;1.00;;;17.60;94.50;;;;;;4975472;28;20093;-88